createdAt,value
2018-03-25T00:00:12.575Z,90.39
2018-03-25T00:01:12.530Z,91.00
2018-03-25T00:02:12.484Z,90.86
2018-03-25T00:03:12.619Z,90.96
2018-03-25T00:04:12.387Z,90.96
2018-03-25T00:05:12.336Z,90.86
2018-03-25T00:06:12.286Z,90.30
2018-03-25T00:07:12.238Z,90.39
2018-03-25T00:08:12.246Z,90.58
2018-03-25T00:09:12.200Z,90.86
2018-03-25T00:10:12.095Z,90.77
2018-03-25T00:11:12.047Z,90.77
2018-03-25T00:12:11.997Z,90.58
2018-03-25T00:13:11.955Z,90.67
2018-03-25T00:14:11.952Z,90.30
2018-03-25T00:15:11.855Z,90.20
2018-03-25T00:16:11.804Z,90.67
2018-03-25T00:17:11.788Z,90.67
2018-03-25T00:18:11.707Z,90.39
2018-03-25T00:19:11.661Z,90.30
2018-03-25T00:20:11.616Z,90.67
2018-03-25T00:21:11.565Z,91.24
2018-03-25T00:22:11.515Z,91.15
2018-03-25T00:23:11.470Z,91.05
2018-03-25T00:24:11.416Z,91.24
2018-03-25T00:25:11.368Z,91.24
2018-03-25T00:26:11.320Z,91.24
2018-03-25T00:27:11.270Z,91.34
2018-03-25T00:28:11.224Z,91.15
2018-03-25T00:29:11.189Z,91.15
2018-03-25T00:30:11.134Z,90.96
2018-03-25T00:31:11.077Z,91.43
2018-03-25T00:32:11.056Z,91.24
2018-03-25T00:33:10.995Z,91.53
2018-03-25T00:34:10.933Z,91.15
2018-03-25T00:35:10.884Z,91.34
2018-03-25T00:36:10.837Z,91.43
2018-03-25T00:37:10.788Z,91.43
2018-03-25T00:38:10.737Z,91.43
2018-03-25T00:39:10.690Z,91.24
2018-03-25T00:40:10.644Z,91.53
2018-03-25T00:41:10.592Z,91.53
2018-03-25T00:42:10.544Z,91.91
2018-03-25T00:43:10.495Z,92.19
2018-03-25T00:44:10.448Z,91.91
2018-03-25T00:45:10.398Z,92.00
2018-03-25T00:46:10.350Z,92.00
2018-03-25T00:47:10.301Z,91.72
2018-03-25T00:48:10.253Z,91.81
2018-03-25T00:49:10.205Z,91.81
2018-03-25T00:50:10.154Z,92.29
2018-03-25T00:51:10.108Z,92.00
2018-03-25T00:52:10.058Z,92.19
2018-03-25T00:53:10.012Z,92.19
2018-03-25T00:54:09.962Z,92.57
2018-03-25T00:55:09.910Z,92.66
2018-03-25T00:56:09.864Z,92.76
2018-03-25T00:57:09.818Z,92.57
2018-03-25T00:58:09.771Z,92.94
2018-03-25T00:59:09.718Z,92.99
2018-03-25T01:00:09.670Z,92.76
2018-03-25T01:01:09.621Z,93.04
2018-03-25T01:02:09.571Z,93.18
2018-03-25T01:03:09.525Z,92.94
2018-03-25T01:04:09.475Z,92.66
2018-03-25T01:05:09.433Z,93.23
2018-03-25T01:06:09.377Z,93.51
2018-03-25T01:07:09.327Z,93.32
2018-03-25T01:08:09.282Z,93.70
2018-03-25T01:09:09.232Z,93.51
2018-03-25T01:10:09.186Z,93.56
2018-03-25T01:11:09.138Z,93.80
2018-03-25T01:12:09.093Z,94.04
2018-03-25T01:13:09.037Z,93.94
2018-03-25T01:14:08.994Z,94.04
2018-03-25T01:15:08.940Z,94.23
2018-03-25T01:16:08.891Z,93.85
2018-03-25T01:17:08.849Z,93.75
2018-03-25T01:18:08.797Z,94.13
2018-03-25T01:19:08.745Z,93.75
2018-03-25T01:20:08.696Z,94.60
2018-03-25T01:21:08.650Z,94.51
2018-03-25T01:22:08.601Z,94.23
2018-03-25T01:23:08.554Z,94.32
2018-03-25T01:24:08.502Z,94.27
2018-03-25T01:25:08.451Z,94.23
2018-03-25T01:26:08.407Z,94.42
2018-03-25T01:27:08.354Z,94.32
2018-03-25T01:28:08.305Z,94.70
2018-03-25T01:29:08.258Z,94.79
2018-03-25T01:30:08.207Z,93.94
2018-03-25T01:31:08.165Z,94.04
2018-03-25T01:32:08.119Z,94.60
2018-03-25T01:33:08.067Z,93.94
2018-03-25T01:34:08.019Z,93.75
2018-03-25T01:35:07.964Z,94.13
2018-03-25T01:36:07.919Z,93.94
2018-03-25T01:37:07.869Z,93.94
2018-03-25T01:38:07.817Z,94.04
2018-03-25T01:39:07.769Z,94.04
2018-03-25T01:40:07.746Z,93.85
2018-03-25T01:41:07.682Z,93.75
2018-03-25T01:42:07.626Z,94.04
2018-03-25T01:43:07.579Z,94.23
2018-03-25T01:44:07.525Z,94.13
2018-03-25T01:45:07.476Z,93.94
2018-03-25T01:46:07.430Z,94.23
2018-03-25T01:47:07.385Z,94.04
2018-03-25T01:48:07.333Z,94.04
2018-03-25T01:49:07.283Z,94.04
2018-03-25T01:50:07.234Z,94.04
2018-03-25T01:51:07.182Z,93.66
2018-03-25T01:52:07.136Z,94.04
2018-03-25T01:53:07.085Z,94.04
2018-03-25T01:54:07.036Z,93.94
2018-03-25T01:55:06.987Z,93.66
2018-03-25T01:56:06.938Z,93.85
2018-03-25T01:57:06.913Z,93.85
2018-03-25T01:58:06.848Z,94.04
2018-03-25T01:59:06.791Z,93.85
2018-03-25T02:00:06.937Z,94.13
2018-03-25T02:01:06.694Z,93.94
2018-03-25T02:02:06.648Z,94.04
2018-03-25T02:03:06.602Z,94.70
2018-03-25T02:04:06.547Z,94.60
2018-03-25T02:05:06.498Z,94.60
2018-03-25T02:06:06.448Z,94.32
2018-03-25T02:07:06.401Z,94.32
2018-03-25T02:08:06.351Z,94.79
2018-03-25T02:09:06.301Z,94.79
2018-03-25T02:10:06.253Z,94.70
2018-03-25T02:11:06.203Z,95.45
2018-03-25T02:12:06.155Z,94.42
2018-03-25T02:13:06.106Z,94.60
2018-03-25T02:14:09.058Z,95.45
2018-03-25T02:15:06.009Z,94.70
2018-03-25T02:16:05.959Z,95.17
2018-03-25T02:17:05.909Z,94.70
2018-03-25T02:18:05.862Z,94.79
2018-03-25T02:19:05.812Z,94.79
2018-03-25T02:20:05.764Z,94.70
2018-03-25T02:21:05.715Z,94.79
2018-03-25T02:22:05.666Z,95.45
2018-03-25T02:23:05.615Z,94.89
2018-03-25T02:24:05.569Z,94.89
2018-03-25T02:25:05.518Z,94.89
2018-03-25T02:26:05.468Z,94.98
2018-03-25T02:27:05.418Z,94.89
2018-03-25T02:28:05.372Z,95.17
2018-03-25T02:29:05.325Z,95.26
2018-03-25T02:30:05.272Z,94.89
2018-03-25T02:31:05.225Z,94.79
2018-03-25T02:32:05.174Z,94.89
2018-03-25T02:33:05.129Z,95.17
2018-03-25T02:34:05.081Z,95.07
2018-03-25T02:35:05.030Z,94.89
2018-03-25T02:36:04.979Z,95.07
2018-03-25T02:37:04.930Z,95.55
2018-03-25T02:38:04.883Z,95.55
2018-03-25T02:39:04.832Z,95.36
2018-03-25T02:40:04.780Z,95.31
2018-03-25T02:41:04.733Z,95.45
2018-03-25T02:42:04.683Z,95.36
2018-03-25T02:43:04.641Z,95.45
2018-03-25T02:44:04.589Z,95.26
2018-03-25T02:45:04.535Z,95.64
2018-03-25T02:46:04.484Z,95.74
2018-03-25T02:47:04.434Z,96.12
2018-03-25T02:48:04.386Z,96.02
2018-03-25T02:49:04.340Z,95.83
2018-03-25T02:50:04.288Z,95.97
2018-03-25T02:51:04.257Z,95.74
2018-03-25T02:52:04.191Z,96.21
2018-03-25T02:53:04.141Z,95.97
2018-03-25T02:54:04.094Z,95.78
2018-03-25T02:55:04.042Z,95.88
2018-03-25T02:56:03.993Z,95.97
2018-03-25T02:57:03.961Z,95.97
2018-03-25T02:58:03.895Z,95.78
2018-03-25T02:59:03.847Z,95.78
2018-03-25T03:00:03.805Z,95.78
2018-03-25T03:01:03.746Z,95.69
2018-03-25T03:02:03.698Z,96.07
2018-03-25T03:03:03.648Z,96.26
2018-03-25T03:04:03.610Z,95.97
2018-03-25T03:05:03.554Z,95.97
2018-03-25T03:06:03.501Z,96.16
2018-03-25T03:07:03.460Z,95.88
2018-03-25T03:08:03.407Z,96.07
2018-03-25T03:09:03.352Z,95.97
2018-03-25T03:10:03.309Z,95.78
2018-03-25T03:11:03.253Z,95.97
2018-03-25T03:12:03.206Z,95.88
2018-03-25T03:13:03.154Z,96.26
2018-03-25T03:14:03.112Z,96.26
2018-03-25T03:15:03.060Z,96.64
2018-03-25T03:16:03.009Z,96.26
2018-03-25T03:17:02.958Z,96.45
2018-03-25T03:18:02.907Z,96.45
2018-03-25T03:19:02.858Z,96.64
2018-03-25T03:20:02.816Z,96.07
2018-03-25T03:21:02.762Z,96.26
2018-03-25T03:22:02.710Z,96.26
2018-03-25T03:23:02.660Z,96.45
2018-03-25T03:24:02.611Z,96.54
2018-03-25T03:25:02.562Z,96.35
2018-03-25T03:26:02.512Z,96.26
2018-03-25T03:27:02.471Z,96.54
2018-03-25T03:28:02.417Z,96.54
2018-03-25T03:29:02.376Z,96.83
2018-03-25T03:30:02.316Z,96.64
2018-03-25T03:31:02.266Z,96.26
2018-03-25T03:32:02.219Z,96.26
2018-03-25T03:33:02.168Z,96.45
2018-03-25T03:34:02.118Z,96.26
2018-03-25T03:35:02.070Z,96.16
2018-03-25T03:36:02.022Z,96.16
2018-03-25T03:37:01.972Z,96.26
2018-03-25T03:38:01.921Z,96.26
2018-03-25T03:39:01.879Z,96.26
2018-03-25T03:40:01.821Z,96.26
2018-03-25T03:41:01.773Z,96.26
2018-03-25T03:42:01.735Z,96.26
2018-03-25T03:43:01.673Z,96.26
2018-03-25T03:44:01.627Z,96.45
2018-03-25T03:45:01.580Z,96.64
2018-03-25T03:46:01.523Z,96.35
2018-03-25T03:47:01.473Z,96.64
2018-03-25T03:48:01.428Z,96.45
2018-03-25T03:49:01.378Z,96.45
2018-03-25T03:50:01.328Z,96.45
2018-03-25T03:51:01.276Z,96.45
2018-03-25T03:52:01.228Z,96.16
2018-03-25T03:53:01.180Z,96.35
2018-03-25T03:54:01.131Z,96.54
2018-03-25T03:55:01.082Z,96.73
2018-03-25T03:56:01.028Z,97.01
2018-03-25T03:57:00.983Z,96.92
2018-03-25T03:58:00.930Z,96.83
2018-03-25T03:59:00.883Z,96.54
2018-03-25T04:00:00.836Z,96.73
2018-03-25T04:01:00.783Z,96.64
2018-03-25T04:02:00.731Z,96.73
2018-03-25T04:03:00.684Z,96.64
2018-03-25T04:04:00.638Z,96.45
2018-03-25T04:05:00.588Z,96.64
2018-03-25T04:06:00.534Z,96.26
2018-03-25T04:07:00.487Z,96.45
2018-03-25T04:08:00.436Z,96.64
2018-03-25T04:09:00.400Z,96.64
2018-03-25T04:10:00.339Z,96.73
2018-03-25T04:11:00.290Z,96.92
2018-03-25T04:12:00.237Z,96.73
2018-03-25T04:13:00.188Z,97.11
2018-03-25T04:14:00.143Z,96.92
2018-03-25T04:15:00.096Z,96.92
2018-03-25T04:16:00.041Z,96.92
2018-03-25T04:16:59.992Z,97.01
2018-03-25T04:17:59.943Z,97.49
2018-03-25T04:18:59.894Z,97.20
2018-03-25T04:19:59.841Z,97.20
2018-03-25T04:20:59.793Z,97.58
2018-03-25T04:21:59.742Z,97.01
2018-03-25T04:22:59.699Z,97.30
2018-03-25T04:23:59.644Z,97.11
2018-03-25T04:24:59.597Z,97.11
2018-03-25T04:25:59.547Z,97.20
2018-03-25T04:26:59.492Z,96.92
2018-03-25T04:27:59.447Z,97.39
2018-03-25T04:28:59.398Z,97.67
2018-03-25T04:29:59.345Z,97.30
2018-03-25T04:30:59.298Z,97.49
2018-03-25T04:31:59.252Z,97.58
2018-03-25T04:32:59.196Z,97.58
2018-03-25T04:33:59.146Z,97.58
2018-03-25T04:34:59.098Z,97.49
2018-03-25T04:35:59.047Z,97.39
2018-03-25T04:36:58.998Z,97.39
2018-03-25T04:37:58.949Z,97.39
2018-03-25T04:38:58.900Z,97.39
2018-03-25T04:39:58.851Z,97.39
2018-03-25T04:40:58.801Z,97.20
2018-03-25T04:41:58.751Z,97.39
2018-03-25T04:42:58.701Z,97.96
2018-03-25T04:43:58.653Z,97.86
2018-03-25T04:44:58.602Z,98.05
2018-03-25T04:45:58.560Z,97.58
2018-03-25T04:46:58.503Z,97.67
2018-03-25T04:47:58.455Z,97.39
2018-03-25T04:48:58.406Z,97.39
2018-03-25T04:49:58.352Z,96.92
2018-03-25T04:50:58.307Z,97.39
2018-03-25T04:51:58.256Z,97.49
2018-03-25T04:52:58.205Z,97.39
2018-03-25T04:53:58.160Z,97.49
2018-03-25T04:54:58.108Z,97.39
2018-03-25T04:55:58.057Z,97.30
2018-03-25T04:56:58.008Z,97.01
2018-03-25T04:57:57.958Z,97.30
2018-03-25T04:58:57.913Z,97.39
2018-03-25T04:59:57.858Z,97.39
2018-03-25T05:00:57.810Z,97.20
2018-03-25T05:01:57.758Z,97.67
2018-03-25T05:02:57.708Z,97.39
2018-03-25T05:03:57.659Z,97.39
2018-03-25T05:04:57.609Z,97.39
2018-03-25T05:05:57.560Z,97.86
2018-03-25T05:06:57.509Z,97.77
2018-03-25T05:07:57.461Z,97.77
2018-03-25T05:08:57.410Z,97.49
2018-03-25T05:09:57.364Z,97.49
2018-03-25T05:10:57.310Z,97.58
2018-03-25T05:11:57.261Z,97.58
2018-03-25T05:12:57.214Z,97.58
2018-03-25T05:13:57.163Z,97.86
2018-03-25T05:14:57.113Z,97.67
2018-03-25T05:15:57.065Z,97.96
2018-03-25T05:16:57.015Z,97.77
2018-03-25T05:17:56.961Z,97.86
2018-03-25T05:18:56.914Z,97.39
2018-03-25T05:19:56.870Z,98.05
2018-03-25T05:20:56.814Z,97.86
2018-03-25T05:21:56.765Z,98.05
2018-03-25T05:22:56.718Z,97.86
2018-03-25T05:23:56.671Z,97.96
2018-03-25T05:24:56.619Z,97.96
2018-03-25T05:25:56.570Z,97.96
2018-03-25T05:26:56.518Z,98.14
2018-03-25T05:27:56.466Z,98.14
2018-03-25T05:28:56.415Z,98.05
2018-03-25T05:29:56.371Z,98.05
2018-03-25T05:30:56.319Z,97.67
2018-03-25T05:31:56.265Z,97.96
2018-03-25T05:32:56.226Z,97.86
2018-03-25T05:33:56.168Z,97.67
2018-03-25T05:34:56.127Z,97.58
2018-03-25T05:35:56.070Z,98.05
2018-03-25T05:36:56.022Z,97.58
2018-03-25T05:37:55.974Z,97.86
2018-03-25T05:38:55.922Z,97.77
2018-03-25T05:39:55.870Z,97.77
2018-03-25T05:40:55.821Z,97.77
2018-03-25T05:41:55.769Z,97.67
2018-03-25T05:42:55.720Z,97.86
2018-03-25T05:43:55.670Z,97.30
2018-03-25T05:44:55.624Z,98.05
2018-03-25T05:45:55.572Z,98.14
2018-03-25T05:46:55.522Z,98.14
2018-03-25T05:47:55.471Z,97.77
2018-03-25T05:48:55.430Z,98.33
2018-03-25T05:49:55.379Z,98.14
2018-03-25T05:50:55.324Z,98.05
2018-03-25T05:51:55.280Z,97.96
2018-03-25T05:52:55.221Z,97.67
2018-03-25T05:53:55.173Z,97.67
2018-03-25T05:54:55.122Z,97.96
2018-03-25T05:55:55.077Z,98.05
2018-03-25T05:56:55.024Z,98.05
2018-03-25T05:57:54.973Z,98.05
2018-03-25T05:58:54.925Z,98.05
2018-03-25T05:59:54.873Z,98.05
2018-03-25T06:00:54.824Z,98.14
2018-03-25T06:01:54.773Z,97.86
2018-03-25T06:02:54.724Z,97.96
2018-03-25T06:03:54.681Z,98.05
2018-03-25T06:04:54.628Z,98.05
2018-03-25T06:05:54.572Z,97.86
2018-03-25T06:06:54.526Z,97.96
2018-03-25T06:07:54.478Z,98.14
2018-03-25T06:08:54.428Z,97.86
2018-03-25T06:09:54.375Z,97.86
2018-03-25T06:10:54.328Z,98.05
2018-03-25T06:11:54.288Z,98.52
2018-03-25T06:12:54.230Z,98.05
2018-03-25T06:13:54.183Z,97.86
2018-03-25T06:14:54.132Z,97.86
2018-03-25T06:15:54.165Z,97.77
2018-03-25T06:16:54.030Z,98.24
2018-03-25T06:17:53.979Z,98.05
2018-03-25T06:18:53.930Z,97.96
2018-03-25T06:19:53.879Z,97.86
2018-03-25T06:20:53.830Z,97.96
2018-03-25T06:21:53.786Z,98.24
2018-03-25T06:22:53.733Z,98.24
2018-03-25T06:23:53.679Z,97.86
2018-03-25T06:24:53.630Z,98.05
2018-03-25T06:25:53.580Z,97.96
2018-03-25T06:26:53.534Z,97.96
2018-03-25T06:27:53.523Z,98.43
2018-03-25T06:28:53.435Z,98.43
2018-03-25T06:29:53.384Z,97.86
2018-03-25T06:30:53.338Z,98.14
2018-03-25T06:31:53.283Z,97.86
2018-03-25T06:32:53.237Z,98.05
2018-03-25T06:33:53.185Z,97.67
2018-03-25T06:34:53.137Z,98.24
2018-03-25T06:35:53.085Z,98.43
2018-03-25T06:36:53.072Z,98.33
2018-03-25T06:37:52.985Z,97.96
2018-03-25T06:38:52.938Z,97.91
2018-03-25T06:39:52.893Z,97.72
2018-03-25T06:40:52.841Z,98.20
2018-03-25T06:41:52.792Z,98.20
2018-03-25T06:42:52.739Z,98.20
2018-03-25T06:43:52.688Z,97.91
2018-03-25T06:44:52.646Z,97.72
2018-03-25T06:45:52.592Z,98.10
2018-03-25T06:46:52.543Z,97.91
2018-03-25T06:47:52.496Z,98.10
2018-03-25T06:48:52.448Z,98.20
2018-03-25T06:49:52.395Z,98.20
2018-03-25T06:50:52.347Z,98.01
2018-03-25T06:51:52.297Z,98.20
2018-03-25T06:52:52.247Z,98.20
2018-03-25T06:53:52.198Z,97.82
2018-03-25T06:54:52.147Z,98.10
2018-03-25T06:55:52.099Z,98.39
2018-03-25T06:56:52.053Z,98.44
2018-03-25T06:57:52.004Z,98.44
2018-03-25T06:58:51.952Z,98.44
2018-03-25T06:59:51.904Z,97.87
2018-03-25T07:00:51.855Z,97.87
2018-03-25T07:01:51.809Z,97.39
2018-03-25T07:02:51.762Z,96.69
2018-03-25T07:03:51.710Z,96.50
2018-03-25T07:04:51.662Z,96.02
2018-03-25T07:05:51.615Z,95.31
2018-03-25T07:06:51.565Z,94.84
2018-03-25T07:07:51.518Z,92.94
2018-03-25T07:08:51.472Z,92.33
2018-03-25T07:09:51.422Z,91.19
2018-03-25T07:10:51.376Z,90.62
2018-03-25T07:11:51.327Z,89.06
2018-03-25T07:12:51.281Z,87.82
2018-03-25T07:13:51.233Z,86.25
2018-03-25T07:14:51.188Z,85.30
2018-03-25T07:15:51.151Z,84.17
2018-03-25T07:16:51.095Z,83.07
2018-03-25T07:17:51.046Z,81.65
2018-03-25T07:18:51.002Z,80.88
2018-03-25T07:19:50.956Z,80.26
2018-03-25T07:20:50.911Z,79.12
2018-03-25T07:21:50.885Z,78.64
2018-03-25T07:22:50.824Z,77.79
2018-03-25T07:23:50.774Z,76.88
2018-03-25T07:24:50.726Z,76.88
2018-03-25T07:25:50.686Z,76.97
2018-03-25T07:26:50.637Z,75.84
2018-03-25T07:27:50.591Z,74.63
2018-03-25T07:28:50.548Z,74.54
2018-03-25T07:29:50.511Z,74.82
2018-03-25T07:30:50.454Z,74.54
2018-03-25T07:31:50.410Z,74.01
2018-03-25T07:32:50.367Z,73.34
2018-03-25T07:33:50.320Z,72.67
2018-03-25T07:34:50.277Z,72.11
2018-03-25T07:35:50.234Z,70.81
2018-03-25T07:36:50.187Z,69.00
2018-03-25T07:37:50.149Z,67.95
2018-03-25T07:38:50.100Z,68.05
2018-03-25T07:39:50.055Z,67.47
2018-03-25T07:40:50.010Z,66.75
2018-03-25T07:41:49.968Z,66.85
2018-03-25T07:42:49.925Z,66.18
2018-03-25T07:43:49.881Z,65.36
2018-03-25T07:44:49.837Z,65.07
2018-03-25T07:45:49.826Z,65.16
2018-03-25T07:46:49.769Z,64.24
2018-03-25T07:47:49.706Z,63.57
2018-03-25T07:48:49.666Z,63.96
2018-03-25T07:49:49.620Z,62.81
2018-03-25T07:50:49.579Z,62.46
2018-03-25T07:51:49.538Z,61.70
2018-03-25T07:52:49.495Z,62.75
2018-03-25T07:53:49.449Z,61.13
2018-03-25T07:54:49.411Z,59.34
2018-03-25T07:55:49.366Z,58.48
2018-03-25T07:56:49.325Z,58.48
2018-03-25T07:57:49.284Z,57.37
2018-03-25T07:58:49.250Z,57.18
2018-03-25T07:59:49.199Z,57.46
2018-03-25T08:00:49.157Z,56.60
2018-03-25T08:01:49.114Z,56.70
2018-03-25T08:02:49.078Z,55.27
2018-03-25T08:03:49.037Z,55.20
2018-03-25T08:04:48.998Z,54.63
2018-03-25T08:05:48.952Z,54.34
2018-03-25T08:06:48.911Z,53.51
2018-03-25T08:07:48.869Z,52.65
2018-03-25T08:08:48.829Z,51.70
2018-03-25T08:09:48.786Z,51.43
2018-03-25T08:10:48.746Z,51.53
2018-03-25T08:11:48.705Z,51.34
2018-03-25T08:12:48.663Z,51.62
2018-03-25T08:13:48.623Z,50.79
2018-03-25T08:14:48.590Z,50.79
2018-03-25T08:15:48.543Z,50.02
2018-03-25T08:16:48.513Z,49.57
2018-03-25T08:17:48.464Z,48.71
2018-03-25T08:18:48.424Z,47.85
2018-03-25T08:19:48.386Z,48.52
2018-03-25T08:20:48.354Z,48.42
2018-03-25T08:21:48.303Z,47.30
2018-03-25T08:22:48.265Z,45.96
2018-03-25T08:23:48.232Z,46.82
2018-03-25T08:24:48.185Z,46.25
2018-03-25T08:25:48.153Z,45.79
2018-03-25T08:26:48.107Z,45.21
2018-03-25T08:27:48.066Z,44.83
2018-03-25T08:28:48.035Z,44.85
2018-03-25T08:29:47.987Z,44.18
2018-03-25T08:30:47.949Z,43.60
2018-03-25T08:31:47.912Z,43.23
2018-03-25T08:32:47.874Z,43.15
2018-03-25T08:33:47.838Z,43.05
2018-03-25T08:34:47.797Z,42.19
2018-03-25T08:35:47.762Z,42.00
2018-03-25T08:36:47.721Z,41.80
2018-03-25T08:37:47.696Z,41.73
2018-03-25T08:38:47.643Z,41.63
2018-03-25T08:39:47.605Z,41.93
2018-03-25T08:40:47.570Z,41.44
2018-03-25T08:41:47.532Z,40.48
2018-03-25T08:42:47.493Z,39.83
2018-03-25T08:43:47.454Z,39.45
2018-03-25T08:44:47.416Z,39.73
2018-03-25T08:45:47.378Z,39.64
2018-03-25T08:46:47.348Z,38.68
2018-03-25T08:47:47.315Z,39.16
2018-03-25T08:48:47.267Z,38.70
2018-03-25T08:49:47.237Z,37.84
2018-03-25T08:50:47.194Z,37.35
2018-03-25T08:51:47.155Z,37.55
2018-03-25T08:52:47.121Z,37.76
2018-03-25T08:53:47.080Z,37.76
2018-03-25T08:54:47.041Z,36.41
2018-03-25T08:55:47.006Z,36.51
2018-03-25T08:56:46.967Z,37.18
2018-03-25T08:57:46.966Z,36.60
2018-03-25T08:58:46.897Z,36.22
2018-03-25T08:59:46.858Z,36.41
2018-03-25T09:00:46.823Z,35.93
2018-03-25T09:01:46.784Z,36.32
2018-03-25T09:02:46.747Z,36.60
2018-03-25T09:03:46.711Z,35.83
2018-03-25T09:04:46.690Z,35.64
2018-03-25T09:05:46.638Z,35.26
2018-03-25T09:06:46.600Z,35.16
2018-03-25T09:07:46.570Z,34.78
2018-03-25T09:08:46.528Z,34.78
2018-03-25T09:09:46.491Z,35.93
2018-03-25T09:10:46.485Z,35.26
2018-03-25T09:11:46.425Z,35.26
2018-03-25T09:12:46.382Z,35.45
2018-03-25T09:13:46.345Z,36.03
2018-03-25T09:14:46.306Z,35.36
2018-03-25T09:15:46.273Z,35.74
2018-03-25T09:16:46.237Z,35.74
2018-03-25T09:17:46.201Z,35.83
2018-03-25T09:18:46.160Z,35.55
2018-03-25T09:19:46.124Z,35.06
2018-03-25T09:20:46.094Z,35.24
2018-03-25T09:21:46.115Z,35.63
2018-03-25T09:22:46.014Z,35.24
2018-03-25T09:23:45.978Z,35.72
2018-03-25T09:24:45.941Z,35.34
2018-03-25T09:25:45.907Z,35.43
2018-03-25T09:26:45.869Z,35.72
2018-03-25T09:27:45.826Z,36.97
2018-03-25T09:28:45.795Z,36.68
2018-03-25T09:29:45.753Z,36.97
2018-03-25T09:30:45.717Z,36.97
2018-03-25T09:31:45.679Z,37.16
2018-03-25T09:32:45.644Z,36.68
2018-03-25T09:33:45.612Z,36.86
2018-03-25T09:34:45.571Z,36.09
2018-03-25T09:35:45.530Z,37.05
2018-03-25T09:36:45.491Z,37.05
2018-03-25T09:37:45.456Z,36.38
2018-03-25T09:38:45.417Z,35.89
2018-03-25T09:39:45.380Z,35.03
2018-03-25T09:40:45.346Z,35.71
2018-03-25T09:41:45.304Z,36.47
2018-03-25T09:42:45.271Z,35.89
2018-03-25T09:43:45.229Z,34.75
2018-03-25T09:44:45.193Z,35.13
2018-03-25T09:45:45.157Z,35.42
2018-03-25T09:46:45.114Z,36.47
2018-03-25T09:47:45.077Z,35.89
2018-03-25T09:48:45.039Z,36.66
2018-03-25T09:49:45.004Z,36.86
2018-03-25T09:50:44.965Z,37.24
2018-03-25T09:51:44.928Z,36.95
2018-03-25T09:52:44.929Z,36.86
2018-03-25T09:53:44.851Z,37.82
2018-03-25T09:54:44.812Z,37.91
2018-03-25T09:55:44.774Z,37.53
2018-03-25T09:56:44.737Z,37.72
2018-03-25T09:57:44.696Z,37.60
2018-03-25T09:58:44.712Z,36.46
2018-03-25T09:59:44.620Z,37.70
2018-03-25T10:00:44.583Z,37.13
2018-03-25T10:01:44.544Z,36.26
2018-03-25T10:02:44.506Z,35.88
2018-03-25T10:03:44.498Z,34.82
2018-03-25T10:04:44.509Z,36.07
2018-03-25T10:05:44.389Z,36.55
2018-03-25T10:06:44.352Z,36.36
2018-03-25T10:07:44.314Z,37.03
2018-03-25T10:08:44.279Z,38.66
2018-03-25T10:09:44.240Z,36.84
2018-03-25T10:10:44.203Z,37.99
2018-03-25T10:11:44.160Z,36.84
2018-03-25T10:12:44.123Z,36.93
2018-03-25T10:13:44.084Z,36.46
2018-03-25T10:14:44.045Z,37.03
2018-03-25T10:15:44.004Z,36.46
2018-03-25T10:16:44.014Z,36.16
2018-03-25T10:17:43.930Z,36.16
2018-03-25T10:18:43.889Z,36.16
2018-03-25T10:19:43.853Z,35.88
2018-03-25T10:20:43.811Z,36.65
2018-03-25T10:21:43.772Z,36.66
2018-03-25T10:22:43.734Z,36.07
2018-03-25T10:23:43.698Z,36.36
2018-03-25T10:24:43.667Z,35.97
2018-03-25T10:25:43.618Z,36.09
2018-03-25T10:26:43.619Z,36.09
2018-03-25T10:27:43.542Z,36.47
2018-03-25T10:28:43.506Z,36.86
2018-03-25T10:29:43.463Z,36.09
2018-03-25T10:30:43.423Z,36.38
2018-03-25T10:31:43.385Z,36.66
2018-03-25T10:32:43.349Z,37.05
2018-03-25T10:33:43.307Z,36.66
2018-03-25T10:34:43.270Z,36.47
2018-03-25T10:35:43.231Z,36.86
2018-03-25T10:36:43.198Z,36.47
2018-03-25T10:37:43.189Z,36.47
2018-03-25T10:38:43.119Z,36.09
2018-03-25T10:39:43.079Z,35.89
2018-03-25T10:40:43.039Z,35.99
2018-03-25T10:41:42.998Z,35.51
2018-03-25T10:42:42.964Z,35.51
2018-03-25T10:43:42.926Z,35.71
2018-03-25T10:44:42.887Z,35.22
2018-03-25T10:45:42.846Z,34.67
2018-03-25T10:46:42.805Z,34.47
2018-03-25T10:47:42.767Z,34.94
2018-03-25T10:48:42.736Z,33.99
2018-03-25T10:49:42.689Z,35.14
2018-03-25T10:50:42.651Z,35.32
2018-03-25T10:51:42.613Z,35.13
2018-03-25T10:52:42.576Z,34.84
2018-03-25T10:53:42.534Z,34.94
2018-03-25T10:54:42.504Z,34.84
2018-03-25T10:55:42.458Z,35.71
2018-03-25T10:56:42.419Z,36.18
2018-03-25T10:57:42.379Z,37.91
2018-03-25T10:58:42.340Z,37.05
2018-03-25T10:59:42.303Z,38.10
2018-03-25T11:00:42.265Z,36.95
2018-03-25T11:01:42.222Z,36.47
2018-03-25T11:02:42.186Z,35.71
2018-03-25T11:03:42.147Z,36.97
2018-03-25T11:04:42.132Z,35.82
2018-03-25T11:05:42.069Z,35.89
2018-03-25T11:06:42.029Z,35.34
2018-03-25T11:07:41.993Z,34.86
2018-03-25T11:08:41.956Z,34.76
2018-03-25T11:09:41.923Z,34.47
2018-03-25T11:10:41.874Z,34.86
2018-03-25T11:11:41.835Z,34.76
2018-03-25T11:12:41.797Z,35.55
2018-03-25T11:13:41.761Z,35.06
2018-03-25T11:14:41.723Z,34.11
2018-03-25T11:15:41.684Z,34.78
2018-03-25T11:16:41.641Z,34.31
2018-03-25T11:17:41.604Z,33.74
2018-03-25T11:18:41.572Z,33.07
2018-03-25T11:19:41.527Z,33.64
2018-03-25T11:20:41.493Z,33.66
2018-03-25T11:21:41.450Z,34.14
2018-03-25T11:22:41.412Z,33.75
2018-03-25T11:23:41.381Z,33.67
2018-03-25T11:24:41.347Z,32.52
2018-03-25T11:25:41.299Z,31.46
2018-03-25T11:26:41.256Z,32.62
2018-03-25T11:27:41.221Z,33.00
2018-03-25T11:28:41.183Z,32.90
2018-03-25T11:29:41.146Z,32.33
2018-03-25T11:30:41.107Z,32.62
2018-03-25T11:31:41.067Z,32.43
2018-03-25T11:32:41.032Z,32.54
2018-03-25T11:33:40.999Z,31.38
2018-03-25T11:34:40.954Z,31.67
2018-03-25T11:35:40.922Z,31.19
2018-03-25T11:36:40.879Z,31.38
2018-03-25T11:37:40.842Z,32.34
2018-03-25T11:38:40.804Z,33.21
2018-03-25T11:39:40.767Z,33.00
2018-03-25T11:40:40.728Z,33.29
2018-03-25T11:41:40.694Z,32.71
2018-03-25T11:42:40.658Z,32.81
2018-03-25T11:43:40.618Z,33.97
2018-03-25T11:44:40.586Z,33.75
2018-03-25T11:45:40.542Z,34.14
2018-03-25T11:46:40.505Z,35.10
2018-03-25T11:47:40.464Z,34.33
2018-03-25T11:48:40.431Z,34.14
2018-03-25T11:49:40.390Z,33.75
2018-03-25T11:50:40.360Z,33.66
2018-03-25T11:51:40.314Z,34.05
2018-03-25T11:52:40.279Z,33.12
2018-03-25T11:53:40.235Z,32.94
2018-03-25T11:54:40.201Z,32.17
2018-03-25T11:55:40.163Z,31.90
2018-03-25T11:56:40.125Z,31.24
2018-03-25T11:57:40.086Z,30.87
2018-03-25T11:58:40.048Z,30.59
2018-03-25T11:59:40.013Z,29.64
2018-03-25T12:00:39.977Z,28.58
2018-03-25T12:01:39.937Z,28.39
2018-03-25T12:02:39.896Z,28.30
2018-03-25T12:03:39.862Z,28.30
2018-03-25T12:04:39.824Z,28.31
2018-03-25T12:05:39.832Z,28.41
2018-03-25T12:06:39.750Z,28.33
2018-03-25T12:07:39.717Z,27.76
2018-03-25T12:08:39.681Z,26.70
2018-03-25T12:09:39.641Z,27.20
2018-03-25T12:10:39.608Z,25.94
2018-03-25T12:11:39.571Z,25.27
2018-03-25T12:12:39.533Z,24.79
2018-03-25T12:13:39.494Z,24.88
2018-03-25T12:14:39.458Z,24.69
2018-03-25T12:15:39.424Z,24.50
2018-03-25T12:16:39.386Z,24.03
2018-03-25T12:17:39.350Z,24.30
2018-03-25T12:18:39.316Z,24.38
2018-03-25T12:19:39.284Z,24.17
2018-03-25T12:20:39.244Z,25.52
2018-03-25T12:21:39.219Z,25.73
2018-03-25T12:22:39.172Z,25.84
2018-03-25T12:23:39.140Z,25.76
2018-03-25T12:24:39.104Z,25.37
2018-03-25T12:25:39.073Z,26.35
2018-03-25T12:26:39.032Z,25.96
2018-03-25T12:27:38.998Z,24.62
2018-03-25T12:28:38.960Z,24.03
2018-03-25T12:29:38.925Z,24.02
2018-03-25T12:30:38.890Z,24.39
2018-03-25T12:31:38.858Z,25.25
2018-03-25T12:32:38.823Z,25.34
2018-03-25T12:33:38.791Z,25.42
2018-03-25T12:34:38.752Z,25.51
2018-03-25T12:35:38.721Z,25.60
2018-03-25T12:36:38.687Z,27.25
2018-03-25T12:37:38.646Z,25.71
2018-03-25T12:38:38.613Z,26.66
2018-03-25T12:39:38.582Z,26.35
2018-03-25T12:40:38.541Z,27.14
2018-03-25T12:41:38.506Z,26.48
2018-03-25T12:42:38.470Z,25.83
2018-03-25T12:43:38.436Z,25.15
2018-03-25T12:44:38.400Z,24.68
2018-03-25T12:45:38.363Z,23.82
2018-03-25T12:46:38.329Z,24.40
2018-03-25T12:47:38.293Z,25.83
2018-03-25T12:48:38.259Z,25.63
2018-03-25T12:49:38.224Z,26.50
2018-03-25T12:50:38.185Z,24.86
2018-03-25T12:51:38.152Z,24.57